Time;durP1;ratioP1;P1;durP2;ratioP2;P2;SDS_P1;SDS_P2;PMS_P1;PMS_P2;Temp;Humidity;BMP_temperature;BMP_pressure;BME280_temperature;BME280_humidity;BME280_pressure;Samples;Min_cycle;Max_cycle;Signal;HPM_P1;HPM_P2
2021/12/14 00:01:20;;;;;;;75.90;31.03;;;7.80;99.90;;;;;;5071037;28;20283;-54
2021/12/14 00:03:51;;;;;;;96.67;32.97;;;7.80;99.90;;;;;;5071393;28;20586;-56
2021/12/14 00:06:20;;;;;;;108.20;33.87;;;7.70;99.90;;;;;;5074663;28;20244;-55
2021/12/14 00:08:55;;;;;;;183.13;38.07;;;7.70;99.90;;;;;;5074642;28;20395;-55
2021/12/14 00:11:48;;;;;;;114.00;41.23;;;7.60;99.90;;;;;;5074760;28;20283;-55
2021/12/14 00:15:02;;;;;;;112.00;39.70;;;7.60;99.90;;;;;;5054315;28;20240;-56
2021/12/14 00:17:19;;;;;;;188.73;38.00;;;7.60;99.90;;;;;;5054246;28;20248;-54
2021/12/14 00:19:49;;;;;;;171.40;38.50;;;7.60;99.90;;;;;;5054184;28;20700;-55
2021/12/14 00:22:29;;;;;;;54.60;30.33;;;7.60;99.90;;;;;;5054584;28;20313;-54
2021/12/14 00:24:57;;;;;;;92.67;33.43;;;7.60;99.90;;;;;;5054364;28;20206;-53
2021/12/14 00:27:27;;;;;;;64.83;36.83;;;7.60;99.90;;;;;;5069173;28;20239;-56
2021/12/14 00:29:57;;;;;;;77.87;37.07;;;7.60;99.90;;;;;;5082528;28;20228;-55
2021/12/14 00:32:30;;;;;;;110.87;36.57;;;7.60;99.90;;;;;;5074203;28;20224;-55
2021/12/14 00:35:02;;;;;;;74.00;32.03;;;7.60;99.90;;;;;;5073836;28;20236;-55
2021/12/14 00:37:34;;;;;;;69.57;34.10;;;7.60;99.90;;;;;;5074423;28;20217;-55
2021/12/14 00:40:07;;;;;;;88.97;33.60;;;7.60;99.90;;;;;;5073643;28;20263;-54
2021/12/14 00:42:35;;;;;;;55.03;31.90;;;7.60;99.90;;;;;;5073745;28;20308;-55
2021/12/14 00:45:05;;;;;;;60.63;33.27;;;7.60;99.90;;;;;;5073540;28;20704;-54
2021/12/14 00:47:34;;;;;;;89.67;34.70;;;7.60;99.90;;;;;;5073555;28;20675;-54
2021/12/14 00:50:03;;;;;;;98.03;34.93;;;7.70;99.90;;;;;;5075511;28;20749;-55
2021/12/14 00:52:31;;;;;;;62.57;32.03;;;7.70;99.90;;;;;;5078724;28;20270;-55
2021/12/14 00:55:00;;;;;;;55.57;31.10;;;7.70;99.90;;;;;;5093097;28;20233;-54
2021/12/14 00:57:29;;;;;;;52.93;30.10;;;7.70;99.90;;;;;;5074075;28;20614;-56
2021/12/14 00:59:58;;;;;;;182.47;44.40;;;7.80;99.90;;;;;;5071772;28;20323;-54
2021/12/14 01:02:26;;;;;;;134.83;43.67;;;7.70;99.90;;;;;;5072795;28;20278;-55
2021/12/14 01:04:58;;;;;;;72.60;33.57;;;7.70;99.90;;;;;;5073523;28;20291;-54
2021/12/14 01:07:29;;;;;;;59.77;31.10;;;7.70;99.90;;;;;;5073176;28;20241;-54
2021/12/14 01:10:00;;;;;;;47.47;29.07;;;7.70;99.90;;;;;;5073547;28;20236;-55
2021/12/14 01:12:38;;;;;;;45.67;27.63;;;7.70;99.90;;;;;;5073064;28;20309;-54
2021/12/14 01:15:24;;;;;;;68.23;32.90;;;7.70;99.90;;;;;;5073358;28;20252;-55
2021/12/14 01:18:02;;;;;;;50.40;29.33;;;7.80;99.90;;;;;;5072770;28;20248;-55
2021/12/14 01:20:38;;;;;;;60.67;31.97;;;7.70;99.90;;;;;;5073126;28;20260;-54
2021/12/14 01:23:17;;;;;;;54.33;30.90;;;7.70;99.90;;;;;;5072915;28;20319;-55
2021/12/14 01:25:48;;;;;;;62.73;33.40;;;7.70;99.90;;;;;;5073475;28;20266;-54
2021/12/14 01:28:20;;;;;;;48.00;29.37;;;7.70;99.90;;;;;;5087894;28;20224;-55
2021/12/14 01:31:01;;;;;;;63.43;31.67;;;7.70;99.90;;;;;;5073951;28;20200;-54
2021/12/14 01:33:29;;;;;;;55.07;31.20;;;7.70;99.90;;;;;;5052677;28;20276;-56
2021/12/14 01:36:02;;;;;;;93.37;36.63;;;7.70;99.90;;;;;;5064312;28;20208;-54
2021/12/14 01:38:36;;;;;;;61.13;31.03;;;7.70;99.90;;;;;;5069514;28;20235;-54
2021/12/14 01:41:07;;;;;;;52.00;31.93;;;7.60;99.90;;;;;;5072910;28;20319;-54
2021/12/14 01:43:43;;;;;;;59.37;32.00;;;7.60;99.90;;;;;;5073008;28;20610;-54
2021/12/14 01:46:15;;;;;;;49.60;30.77;;;7.70;99.90;;;;;;5072400;28;20294;-54
2021/12/14 01:48:44;;;;;;;45.97;28.97;;;7.70;99.90;;;;;;5072788;28;20207;-55
2021/12/14 01:51:14;;;;;;;49.53;28.43;;;7.70;99.90;;;;;;5072191;28;20210;-54
2021/12/14 01:53:45;;;;;;;57.80;30.57;;;7.70;99.90;;;;;;5087692;28;20686;-55
2021/12/14 01:56:18;;;;;;;49.90;29.27;;;7.70;99.90;;;;;;5092970;28;20323;-54
2021/12/14 01:58:51;;;;;;;49.27;28.60;;;7.70;99.90;;;;;;5090839;28;20287;-53
2021/12/14 02:01:23;;;;;;;51.07;30.27;;;7.70;99.90;;;;;;5067758;28;20312;-54
2021/12/14 02:03:54;;;;;;;49.17;28.10;;;7.70;99.90;;;;;;5052644;28;20763;-55
2021/12/14 02:06:28;;;;;;;50.27;28.90;;;7.70;99.90;;;;;;5052150;28;20206;-55
2021/12/14 02:08:59;;;;;;;65.03;31.63;;;7.70;99.90;;;;;;5052610;28;20274;-55
2021/12/14 02:11:31;;;;;;;45.03;28.00;;;7.80;99.90;;;;;;5052300;28;20308;-54
2021/12/14 02:14:01;;;;;;;63.60;31.93;;;7.70;99.90;;;;;;5072463;28;20236;-55
2021/12/14 02:16:29;;;;;;;56.23;29.97;;;7.70;99.90;;;;;;5072264;28;20242;-54
2021/12/14 02:19:01;;;;;;;53.50;29.63;;;7.70;99.90;;;;;;5072107;28;20207;-54
2021/12/14 02:21:31;;;;;;;49.43;29.17;;;7.70;99.90;;;;;;5071664;28;20323;-54
2021/12/14 02:24:03;;;;;;;59.77;31.50;;;7.70;99.90;;;;;;5072284;28;20274;-55
2021/12/14 02:26:34;;;;;;;115.30;39.23;;;7.70;99.90;;;;;;5071934;28;20299;-55
2021/12/14 02:29:06;;;;;;;95.73;36.37;;;7.70;99.90;;;;;;5088655;28;20229;-54
2021/12/14 02:31:37;;;;;;;51.73;29.43;;;7.60;99.90;;;;;;5073173;28;20653;-54
2021/12/14 02:34:08;;;;;;;51.93;30.40;;;7.60;99.90;;;;;;5071324;28;20248;-54
2021/12/14 02:36:41;;;;;;;56.03;29.87;;;7.60;99.90;;;;;;5071707;28;20216;-54
2021/12/14 02:39:25;;;;;;;49.70;30.00;;;7.60;99.90;;;;;;5071745;28;20238;-55
2021/12/14 02:41:56;;;;;;;51.47;30.23;;;7.70;99.90;;;;;;5071218;28;20712;-55
2021/12/14 02:44:25;;;;;;;68.40;34.13;;;7.70;99.90;;;;;;5071344;28;20258;-54
2021/12/14 02:46:56;;;;;;;56.57;31.67;;;7.70;99.90;;;;;;5076601;28;20240;-55
2021/12/14 02:49:28;;;;;;;80.33;35.00;;;7.70;99.90;;;;;;5090493;28;20223;-55
2021/12/14 02:52:00;;;;;;;92.57;37.80;;;7.70;99.90;;;;;;5091271;28;20262;-54
2021/12/14 02:54:32;;;;;;;65.53;33.30;;;7.60;99.90;;;;;;5091746;28;20291;-55
2021/12/14 02:57:03;;;;;;;88.53;36.20;;;7.60;99.90;;;;;;5091834;28;20255;-55
2021/12/14 02:59:37;;;;;;;72.93;35.43;;;7.50;99.90;;;;;;5074797;28;20229;-54
2021/12/14 03:02:12;;;;;;;86.87;36.77;;;7.60;99.90;;;;;;5051271;28;20268;-54
2021/12/14 03:04:42;;;;;;;74.23;34.17;;;7.60;99.90;;;;;;5056506;28;20214;-55
2021/12/14 03:07:15;;;;;;;65.97;32.93;;;7.50;99.90;;;;;;5071439;28;20235;-55
2021/12/14 03:09:56;;;;;;;84.43;36.03;;;7.60;99.90;;;;;;5071479;28;20228;-54
2021/12/14 03:12:30;;;;;;;68.23;33.03;;;7.50;99.90;;;;;;5071217;28;20629;-55
2021/12/14 03:15:05;;;;;;;59.70;32.83;;;7.50;99.90;;;;;;5070856;28;20743;-54
2021/12/14 03:17:33;;;;;;;50.40;28.73;;;7.50;99.90;;;;;;5071054;28;20708;-54
2021/12/14 03:20:06;;;;;;;58.50;30.93;;;7.60;99.90;;;;;;5071390;28;20247;-55
2021/12/14 03:22:43;;;;;;;55.40;31.60;;;7.60;99.90;;;;;;5070956;28;20793;-55
2021/12/14 03:25:13;;;;;;;103.20;40.30;;;7.60;99.90;;;;;;5071367;28;20204;-54
2021/12/14 03:27:44;;;;;;;67.40;34.47;;;7.50;99.90;;;;;;5071163;28;20240;-54
2021/12/14 03:30:22;;;;;;;75.17;37.27;;;7.50;99.90;;;;;;5070753;28;20246;-54
2021/12/14 03:32:51;;;;;;;55.50;30.50;;;7.50;99.90;;;;;;5062711;28;20255;-54
2021/12/14 03:35:19;;;;;;;53.03;30.83;;;7.50;99.90;;;;;;5070887;28;20251;-54
2021/12/14 03:37:49;;;;;;;60.47;32.57;;;7.60;99.90;;;;;;5071089;28;20235;-57
2021/12/14 03:40:20;;;;;;;64.97;33.23;;;7.60;99.90;;;;;;5073925;28;20236;-54
2021/12/14 03:42:48;;;;;;;60.13;30.77;;;7.60;99.90;;;;;;5075278;28;20323;-53
2021/12/14 03:45:20;;;;;;;56.07;30.17;;;7.50;99.90;;;;;;5074765;28;20251;-54
2021/12/14 03:47:53;;;;;;;80.37;34.87;;;7.50;99.90;;;;;;5074610;28;20229;-54
2021/12/14 03:50:27;;;;;;;75.47;35.43;;;7.50;99.90;;;;;;5074769;28;20291;-55
2021/12/14 03:52:56;;;;;;;51.17;30.27;;;7.50;99.90;;;;;;5083316;28;20246;-53
2021/12/14 03:55:28;;;;;;;85.70;36.20;;;7.40;99.90;;;;;;5094993;28;20283;-54
2021/12/14 03:57:56;;;;;;;66.10;34.17;;;7.40;99.90;;;;;;5095336;28;20242;-54
2021/12/14 04:00:27;;;;;;;54.50;30.83;;;7.40;99.90;;;;;;5078572;28;20238;-54
2021/12/14 04:02:59;;;;;;;60.17;32.43;;;7.40;99.90;;;;;;5074602;28;20732;-54
2021/12/14 04:05:28;;;;;;;56.10;30.60;;;7.40;99.90;;;;;;5074783;28;20224;-60
2021/12/14 04:07:58;;;;;;;50.73;30.23;;;7.40;99.90;;;;;;5074650;28;20244;-55
2021/12/14 04:10:30;;;;;;;49.47;29.57;;;7.40;99.90;;;;;;5074878;28;20239;-53
2021/12/14 04:12:59;;;;;;;52.60;29.63;;;7.50;99.90;;;;;;5075942;28;20260;-55
2021/12/14 04:15:28;;;;;;;69.97;33.43;;;7.50;99.90;;;;;;5074919;28;20212;-54
2021/12/14 04:17:57;;;;;;;52.20;30.13;;;7.50;99.90;;;;;;5073990;28;20300;-56
2021/12/14 04:20:29;;;;;;;53.87;31.87;;;7.50;99.90;;;;;;5074602;28;20236;-54
2021/12/14 04:23:00;;;;;;;48.80;30.50;;;7.40;99.90;;;;;;5074023;28;20304;-55
2021/12/14 04:25:30;;;;;;;48.50;29.50;;;7.50;99.90;;;;;;5073971;28;20901;-56
2021/12/14 04:27:59;;;;;;;69.00;35.03;;;7.40;99.90;;;;;;5081161;28;20731;-55
2021/12/14 04:30:29;;;;;;;63.23;33.60;;;7.40;99.90;;;;;;5074288;28;20243;-54
2021/12/14 04:33:01;;;;;;;49.53;31.70;;;7.40;99.90;;;;;;5073945;28;20244;-55
2021/12/14 04:35:33;;;;;;;51.37;30.37;;;7.40;99.90;;;;;;5074446;28;20224;-55
2021/12/14 04:38:10;;;;;;;49.83;30.33;;;7.40;99.90;;;;;;5074138;28;20244;-54
2021/12/14 04:51:58;;;;;;;45.63;28.93;;;7.50;99.90;;;;;;5073482;28;20315;-54
2021/12/14 04:54:31;;;;;;;53.40;32.50;;;7.50;99.90;;;;;;5053772;28;20320;-54
2021/12/14 04:57:00;;;;;;;44.50;29.83;;;7.50;99.90;;;;;;5053808;28;20649;-54
2021/12/14 04:59:30;;;;;;;50.30;31.87;;;7.50;99.90;;;;;;5053474;28;20256;-53
2021/12/14 05:02:02;;;;;;;62.07;35.03;;;7.50;99.90;;;;;;5053686;28;20666;-54
2021/12/14 05:04:32;;;;;;;66.63;38.80;;;7.40;99.90;;;;;;5053465;28;20197;-54
2021/12/14 05:07:04;;;;;;;61.00;36.33;;;7.50;99.90;;;;;;5053762;28;20252;-54
2021/12/14 05:09:36;;;;;;;55.20;32.63;;;7.50;99.90;;;;;;5053649;28;20272;-54
2021/12/14 05:12:09;;;;;;;46.40;30.60;;;7.50;99.90;;;;;;5053294;28;20740;-55
2021/12/14 05:14:40;;;;;;;48.50;31.57;;;7.60;99.90;;;;;;5053525;28;20249;-54
2021/12/14 05:17:11;;;;;;;41.90;28.70;;;7.50;99.90;;;;;;5052838;28;20300;-55
2021/12/14 05:19:42;;;;;;;41.00;28.23;;;7.50;99.90;;;;;;5053678;28;20194;-54
2021/12/14 05:22:13;;;;;;;51.20;31.27;;;7.50;99.90;;;;;;5061906;28;20324;-55
2021/12/14 05:24:45;;;;;;;40.93;28.80;;;7.50;99.90;;;;;;5072849;28;20228;-54
2021/12/14 05:27:18;;;;;;;55.00;31.37;;;7.60;99.90;;;;;;5074692;28;20236;-54
2021/12/14 05:29:47;;;;;;;55.23;31.80;;;7.60;99.90;;;;;;5073183;28;20254;-54
2021/12/14 05:32:18;;;;;;;47.33;27.37;;;7.50;99.90;;;;;;5072833;28;20261;-54
2021/12/14 05:34:51;;;;;;;43.03;26.90;;;7.50;99.90;;;;;;5073243;28;20212;-53
2021/12/14 05:37:23;;;;;;;48.70;28.53;;;7.60;99.90;;;;;;5072773;28;20242;-54
2021/12/14 05:39:58;;;;;;;40.80;26.43;;;7.60;99.90;;;;;;5073215;28;20273;-54
2021/12/14 05:45:15;;;;;;;47.27;28.30;;;7.70;99.90;;;;;;5073006;28;20305;-55
2021/12/14 05:47:50;;;;;;;41.40;27.30;;;7.70;99.90;;;;;;5072193;28;20291;-54
2021/12/14 05:50:21;;;;;;;38.63;26.87;;;7.70;99.90;;;;;;5073127;28;20231;-54
2021/12/14 05:52:49;;;;;;;50.03;28.67;;;7.70;99.90;;;;;;5080793;28;20320;-53
2021/12/14 05:55:24;;;;;;;50.17;30.10;;;7.70;99.90;;;;;;5094529;28;20286;-54
2021/12/14 05:57:53;;;;;;;43.13;28.07;;;7.70;99.90;;;;;;5093050;28;20249;-55
2021/12/14 06:00:22;;;;;;;44.97;28.33;;;7.70;99.90;;;;;;5077182;28;20236;-56
2021/12/14 06:02:50;;;;;;;41.20;27.63;;;7.60;99.90;;;;;;5071907;28;20272;-55
2021/12/14 06:05:21;;;;;;;52.60;30.10;;;7.70;99.90;;;;;;5059356;28;20311;-53
2021/12/14 06:07:51;;;;;;;40.57;28.30;;;7.60;99.90;;;;;;5068626;28;20235;-54
2021/12/14 06:10:23;;;;;;;59.47;32.73;;;7.60;99.90;;;;;;5066946;28;20815;-55
2021/12/14 06:12:51;;;;;;;42.20;28.33;;;7.60;99.90;;;;;;5063024;28;20311;-55
2021/12/14 06:15:26;;;;;;;52.10;29.70;;;7.60;99.90;;;;;;5071939;28;20270;-56
2021/12/14 06:17:55;;;;;;;39.50;26.83;;;7.60;99.90;;;;;;5059410;28;20239;-54
2021/12/14 06:20:26;;;;;;;41.37;26.10;;;7.70;99.90;;;;;;5071511;28;20625;-53
2021/12/14 06:22:55;;;;;;;41.40;27.00;;;7.70;99.90;;;;;;5067714;28;20308;-55
2021/12/14 06:25:27;;;;;;;43.23;27.00;;;7.60;99.90;;;;;;5056380;28;20299;-54
2021/12/14 06:27:59;;;;;;;36.67;25.63;;;7.60;99.90;;;;;;5073372;28;20709;-54
2021/12/14 06:30:30;;;;;;;51.23;30.43;;;7.60;99.90;;;;;;5072041;28;20213;-54
2021/12/14 06:33:01;;;;;;;77.03;35.03;;;7.60;99.90;;;;;;5057748;28;20658;-54
2021/12/14 06:35:33;;;;;;;73.70;33.97;;;7.60;99.90;;;;;;5072254;28;20201;-53
2021/12/14 06:38:29;;;;;;;67.37;33.70;;;7.60;99.90;;;;;;5074229;28;20248;-53
2021/12/14 06:41:11;;;;;;;60.97;31.30;;;7.60;99.90;;;;;;5074043;28;20219;-53
2021/12/14 06:43:43;;;;;;;50.13;27.90;;;7.50;99.90;;;;;;5074112;28;20232;-54
2021/12/14 06:46:15;;;;;;;59.77;29.40;;;7.60;99.90;;;;;;5074033;28;20240;-54
2021/12/14 06:48:46;;;;;;;37.53;24.27;;;7.60;99.90;;;;;;5073521;28;20606;-54
2021/12/14 06:51:17;;;;;;;40.17;25.40;;;7.60;99.90;;;;;;5073009;28;20213;-55
2021/12/14 06:53:49;;;;;;;50.60;28.37;;;7.60;99.90;;;;;;5086658;28;20197;-54
2021/12/14 06:56:27;;;;;;;41.63;25.33;;;7.60;99.90;;;;;;5091663;28;20199;-54
2021/12/14 06:58:58;;;;;;;36.53;24.53;;;7.70;99.90;;;;;;5084759;28;20229;-54
2021/12/14 07:01:30;;;;;;;37.63;25.97;;;7.70;99.90;;;;;;5050511;28;20252;-54
2021/12/14 07:04:01;;;;;;;40.80;24.60;;;7.60;99.90;;;;;;5051230;28;20244;-54
2021/12/14 07:06:31;;;;;;;63.67;30.83;;;7.70;99.90;;;;;;5069614;28;20263;-62
2021/12/14 07:09:08;;;;;;;61.10;29.00;;;7.60;99.90;;;;;;5071278;28;20236;-54
2021/12/14 07:11:39;;;;;;;40.50;25.07;;;7.60;99.90;;;;;;5071336;28;20297;-54
2021/12/14 07:14:22;;;;;;;35.07;23.23;;;7.60;99.90;;;;;;5070426;28;20655;-54
2021/12/14 07:16:50;;;;;;;37.47;23.63;;;7.60;99.90;;;;;;5062918;28;20236;-55
2021/12/14 07:19:38;;;;;;;54.10;28.50;;;7.60;99.90;;;;;;5071449;28;20299;-54
2021/12/14 07:22:06;;;;;;;41.03;25.07;;;7.60;99.90;;;;;;5070859;28;20315;-56
2021/12/14 07:24:37;;;;;;;40.53;25.90;;;7.60;99.90;;;;;;5071154;28;20256;-54
2021/12/14 07:27:31;;;;;;;40.87;24.77;;;7.60;99.90;;;;;;5076243;28;20844;-56
2021/12/14 07:30:21;;;;;;;33.67;23.37;;;7.60;99.90;;;;;;5064308;28;20251;-54
2021/12/14 07:32:53;;;;;;;37.57;24.20;;;7.60;99.90;;;;;;5065670;28;20816;-55
2021/12/14 07:35:31;;;;;;;36.17;23.47;;;7.60;99.90;;;;;;5071409;28;20232;-54
2021/12/14 07:38:03;;;;;;;35.40;23.73;;;7.70;99.90;;;;;;5072657;28;20231;-53
2021/12/14 07:40:39;;;;;;;34.63;23.63;;;7.70;99.90;;;;;;5071089;28;20690;-55
2021/12/14 07:43:16;;;;;;;34.83;23.67;;;7.70;99.90;;;;;;5070768;28;20316;-56
2021/12/14 07:45:44;;;;;;;39.73;24.37;;;7.70;99.90;;;;;;5071268;28;20259;-55
2021/12/14 07:48:12;;;;;;;33.20;22.97;;;7.80;99.90;;;;;;5069878;28;20653;-56
2021/12/14 07:50:47;;;;;;;35.37;23.30;;;7.80;99.90;;;;;;5070701;28;20260;-55
2021/12/14 07:53:15;;;;;;;37.90;24.40;;;7.80;99.90;;;;;;5082240;28;20259;-54
2021/12/14 07:55:48;;;;;;;33.67;22.03;;;7.80;99.90;;;;;;5091000;28;20247;-54
2021/12/14 07:58:29;;;;;;;33.00;22.47;;;7.90;99.90;;;;;;5091587;28;20232;-55
2021/12/14 08:00:57;;;;;;;33.47;23.60;;;7.90;99.90;;;;;;5050760;28;20237;-55
2021/12/14 08:03:32;;;;;;;41.03;25.07;;;7.90;99.90;;;;;;5050769;28;20272;-56
2021/12/14 08:06:02;;;;;;;35.07;24.10;;;7.90;99.90;;;;;;5065685;28;20200;-54
2021/12/14 08:08:41;;;;;;;42.90;24.57;;;7.90;99.90;;;;;;5070916;28;20838;-54
2021/12/14 08:11:30;;;;;;;32.53;22.13;;;7.90;99.90;;;;;;5070134;28;20296;-55
2021/12/14 08:14:03;;;;;;;33.40;22.43;;;7.90;99.90;;;;;;5070820;28;20185;-54
2021/12/14 08:16:43;;;;;;;38.00;23.23;;;8.00;99.90;;;;;;5070595;28;20312;-54
2021/12/14 08:19:27;;;;;;;32.63;21.53;;;8.00;99.90;;;;;;5070723;28;20282;-54
2021/12/14 08:21:56;;;;;;;33.77;22.13;;;8.00;99.90;;;;;;5070779;28;20307;-54
2021/12/14 08:24:24;;;;;;;39.17;23.80;;;7.90;99.90;;;;;;5070480;28;20249;-54
2021/12/14 08:26:55;;;;;;;33.00;23.23;;;7.90;99.90;;;;;;5076719;28;20287;-56
2021/12/14 08:29:27;;;;;;;32.93;22.40;;;7.90;99.90;;;;;;5087229;28;20229;-55
2021/12/14 08:31:57;;;;;;;38.07;24.27;;;7.90;99.90;;;;;;5074326;28;20256;-53
2021/12/14 08:34:28;;;;;;;38.03;23.80;;;7.90;99.90;;;;;;5074192;28;20288;-54
2021/12/14 08:37:01;;;;;;;37.57;23.93;;;7.90;99.90;;;;;;5073629;28;20248;-56
2021/12/14 08:39:32;;;;;;;38.47;24.83;;;8.00;99.90;;;;;;5074322;28;20246;-54
2021/12/14 08:42:11;;;;;;;33.00;22.80;;;8.00;99.90;;;;;;5073821;28;20260;-55
2021/12/14 08:44:51;;;;;;;32.60;22.60;;;8.00;99.90;;;;;;5073412;28;20731;-54
2021/12/14 08:47:27;;;;;;;34.47;23.37;;;8.10;99.90;;;;;;5061580;28;20245;-55
2021/12/14 08:49:56;;;;;;;32.87;23.27;;;8.10;99.90;;;;;;5074186;28;20189;-55
2021/12/14 08:52:27;;;;;;;38.57;24.97;;;8.10;99.90;;;;;;5077283;28;20744;-54
2021/12/14 08:54:55;;;;;;;34.70;22.67;;;8.10;99.90;;;;;;5094272;28;20239;-54
2021/12/14 08:57:25;;;;;;;39.17;25.73;;;8.20;99.90;;;;;;5093700;28;20645;-55
2021/12/14 08:59:57;;;;;;;39.00;25.20;;;8.20;99.90;;;;;;5075007;28;20240;-55
2021/12/14 09:02:26;;;;;;;39.53;25.50;;;8.20;99.90;;;;;;5093564;28;20720;-55
2021/12/14 09:04:58;;;;;;;43.13;25.10;;;8.10;99.90;;;;;;5093811;28;20224;-56
2021/12/14 09:07:30;;;;;;;50.53;27.00;;;8.10;99.90;;;;;;5081934;28;20516;-55
2021/12/14 09:09:59;;;;;;;36.13;24.07;;;8.10;99.90;;;;;;5073450;28;20227;-54
2021/12/14 09:12:31;;;;;;;37.57;24.00;;;8.10;99.90;;;;;;5073046;28;20268;-54
2021/12/14 09:15:05;;;;;;;42.40;25.33;;;8.10;99.90;;;;;;5073304;28;20685;-55
2021/12/14 09:17:33;;;;;;;33.80;21.70;;;8.20;99.90;;;;;;5058544;28;20213;-54
2021/12/14 09:20:08;;;;;;;37.53;22.27;;;8.10;99.90;;;;;;5077070;28;20684;-53
2021/12/14 09:22:41;;;;;;;39.10;23.70;;;8.10;99.90;;;;;;5081402;28;20342;-54
2021/12/14 09:25:11;;;;;;;33.87;22.73;;;8.20;99.90;;;;;;5073044;28;20679;-55
2021/12/14 09:27:39;;;;;;;30.37;21.07;;;8.20;99.90;;;;;;5083044;28;20662;-54
2021/12/14 09:30:13;;;;;;;33.20;21.70;;;8.20;99.90;;;;;;5062842;28;20300;-54
2021/12/14 09:32:42;;;;;;;32.50;21.73;;;8.30;99.90;;;;;;5068894;28;20306;-56
2021/12/14 09:35:16;;;;;;;29.60;19.93;;;8.30;99.90;;;;;;5072230;28;20228;-54
2021/12/14 09:37:46;;;;;;;33.60;22.30;;;8.30;99.90;;;;;;5066944;28;20284;-55
2021/12/14 09:40:23;;;;;;;32.10;21.00;;;8.30;99.90;;;;;;5061491;28;20236;-54
2021/12/14 09:42:52;;;;;;;30.10;20.63;;;8.30;99.90;;;;;;5068759;28;20275;-54
2021/12/14 09:45:25;;;;;;;28.93;19.73;;;8.40;99.90;;;;;;5067090;28;20279;-55
2021/12/14 09:47:53;;;;;;;27.97;19.20;;;8.40;99.90;;;;;;5057686;28;20292;-54
2021/12/14 09:50:26;;;;;;;30.87;20.07;;;8.40;99.90;;;;;;5072383;28;20240;-55
2021/12/14 09:52:55;;;;;;;26.77;19.13;;;8.50;99.90;;;;;;5080428;28;20244;-55
2021/12/14 09:55:27;;;;;;;27.37;18.80;;;8.50;99.90;;;;;;5092541;28;20743;-54
2021/12/14 09:57:58;;;;;;;27.50;17.37;;;8.50;99.90;;;;;;5092642;28;20323;-55
2021/12/14 10:00:32;;;;;;;25.97;17.43;;;8.50;99.90;;;;;;5064923;28;20228;-54
2021/12/14 10:03:03;;;;;;;24.27;16.47;;;8.50;99.90;;;;;;5071577;28;20256;-55
2021/12/14 10:05:36;;;;;;;27.80;17.47;;;8.50;99.90;;;;;;5072018;28;20220;-55
2021/12/14 10:08:14;;;;;;;25.93;17.63;;;8.50;99.90;;;;;;5071968;28;20247;-55
2021/12/14 10:10:46;;;;;;;23.33;16.53;;;8.50;99.90;;;;;;5072412;28;20236;-54
2021/12/14 10:13:15;;;;;;;27.57;17.93;;;8.50;99.90;;;;;;5072165;28;20257;-55
2021/12/14 10:15:47;;;;;;;29.50;18.10;;;8.50;99.90;;;;;;5072376;28;20240;-55
2021/12/14 10:18:24;;;;;;;26.57;17.90;;;8.50;99.90;;;;;;5078850;28;20554;-54
2021/12/14 10:20:56;;;;;;;28.77;18.20;;;8.50;99.90;;;;;;5092595;28;20294;-55
2021/12/14 10:23:26;;;;;;;22.60;16.80;;;8.50;99.90;;;;;;5092654;28;20225;-54
2021/12/14 10:25:55;;;;;;;22.07;16.37;;;8.50;99.90;;;;;;5092377;28;20259;-55
2021/12/14 10:28:26;;;;;;;27.50;18.43;;;8.60;99.90;;;;;;5091994;28;20615;-54
2021/12/14 10:30:59;;;;;;;29.37;18.40;;;8.60;99.90;;;;;;5071185;28;20208;-54
2021/12/14 10:33:29;;;;;;;24.70;16.63;;;8.60;99.90;;;;;;5052040;28;20276;-54
2021/12/14 10:36:04;;;;;;;25.67;17.50;;;8.60;99.90;;;;;;5062846;28;20692;-56
2021/12/14 10:38:38;;;;;;;27.43;18.30;;;8.60;99.90;;;;;;5090147;28;20291;-55
2021/12/14 10:43:58;;;;;;;23.93;17.10;;;8.70;99.90;;;;;;5056608;28;20240;-54
2021/12/14 10:46:31;;;;;;;30.73;18.43;;;8.70;99.90;;;;;;5072090;28;20229;-53
2021/12/14 10:49:00;;;;;;;29.10;18.70;;;8.70;99.90;;;;;;5072030;28;20239;-54
2021/12/14 10:51:30;;;;;;;27.43;19.33;;;8.70;99.90;;;;;;5071406;28;20292;-54
2021/12/14 10:54:00;;;;;;;28.40;19.63;;;8.70;99.90;;;;;;5088697;28;20204;-53
2021/12/14 10:56:41;;;;;;;22.80;17.03;;;8.80;99.90;;;;;;5073785;28;20251;-54
2021/12/14 10:59:14;;;;;;;28.33;18.97;;;8.90;99.90;;;;;;5062931;28;20236;-54
2021/12/14 11:01:49;;;;;;;26.37;17.57;;;8.80;99.90;;;;;;5065968;28;20256;-54
2021/12/14 11:04:22;;;;;;;28.02;21.35;;;8.80;99.90;;;;;;5071036;28;20495;-55
2021/12/14 11:06:53;;;;;;;28.60;22.30;;;9.10;99.90;;;;;;5071238;28;20871;-54
2021/12/14 11:09:42;;;;;;;25.53;20.20;;;9.20;99.90;;;;;;5071506;28;20264;-55
2021/12/14 11:12:20;;;;;;;26.97;18.13;;;9.00;99.90;;;;;;5071075;28;20302;-54
2021/12/14 11:14:50;;;;;;;34.17;21.83;;;8.90;99.90;;;;;;5071464;28;20196;-54
2021/12/14 11:20:11;;;;;;;25.70;17.13;;;8.70;99.90;;;;;;5051588;28;20245;-56
2021/12/14 11:22:48;;;;;;;25.03;16.97;;;8.70;99.90;;;;;;5054627;28;20674;-53
2021/12/14 11:25:46;;;;;;;21.57;15.83;;;8.80;99.90;;;;;;5071439;28;20224;-54
2021/12/14 11:28:19;;;;;;;23.37;15.97;;;8.80;99.90;;;;;;5085462;28;20231;-53
2021/12/14 11:30:51;;;;;;;29.07;17.80;;;8.80;99.90;;;;;;5071896;28;20292;-54
2021/12/14 11:33:25;;;;;;;28.60;18.70;;;8.80;99.90;;;;;;5070848;28;20267;-52
2021/12/14 11:36:01;;;;;;;23.63;16.47;;;8.80;99.90;;;;;;5070807;28;20206;-53
2021/12/14 11:38:36;;;;;;;21.67;15.37;;;8.70;99.90;;;;;;5070819;28;20251;-53
2021/12/14 11:41:20;;;;;;;21.00;15.33;;;8.70;99.90;;;;;;5071238;28;20240;-52
2021/12/14 11:43:51;;;;;;;24.13;15.90;;;8.70;99.90;;;;;;5071211;28;20220;-53
2021/12/14 11:46:20;;;;;;;24.57;16.43;;;8.70;99.90;;;;;;5066858;28;20379;-54
2021/12/14 11:48:50;;;;;;;21.60;14.57;;;8.80;99.90;;;;;;5063648;28;20201;-55
2021/12/14 11:51:18;;;;;;;21.67;14.80;;;8.80;99.90;;;;;;5070648;28;20642;-54
2021/12/14 11:53:52;;;;;;;20.30;14.03;;;8.80;99.90;;;;;;5086752;28;20232;-54
2021/12/14 11:56:27;;;;;;;20.23;13.77;;;8.80;99.90;;;;;;5077750;28;20204;-54
2021/12/14 11:58:57;;;;;;;19.43;13.20;;;8.90;99.90;;;;;;5063564;28;20639;-54
2021/12/14 12:01:28;;;;;;;18.37;13.13;;;8.90;99.90;;;;;;5073741;28;20244;-54
2021/12/14 12:04:00;;;;;;;16.30;11.50;;;8.90;99.90;;;;;;5074818;28;20216;-53
2021/12/14 12:06:46;;;;;;;19.47;13.43;;;8.90;99.90;;;;;;5075149;28;20763;-54
2021/12/14 12:09:31;;;;;;;19.00;12.63;;;8.90;99.90;;;;;;5075141;28;20208;-55
2021/12/14 12:12:26;;;;;;;16.57;11.87;;;8.90;99.90;;;;;;5075483;28;20224;-53
2021/12/14 12:14:58;;;;;;;18.10;12.23;;;8.90;99.90;;;;;;5059422;28;20232;-54
2021/12/14 12:17:34;;;;;;;16.93;12.17;;;8.90;99.90;;;;;;5074789;28;20707;-53
2021/12/14 12:20:13;;;;;;;15.63;11.53;;;8.90;99.90;;;;;;5074766;28;20196;-55
2021/12/14 12:22:45;;;;;;;17.60;12.60;;;8.90;99.90;;;;;;5074929;28;20272;-55
2021/12/14 12:25:15;;;;;;;18.23;12.57;;;8.90;99.90;;;;;;5074874;28;20261;-56
2021/12/14 12:27:46;;;;;;;15.83;10.90;;;8.90;99.90;;;;;;5074560;28;20241;-57
2021/12/14 12:30:32;;;;;;;15.50;11.33;;;8.90;99.90;;;;;;5074670;28;20271;-54
2021/12/14 12:33:13;;;;;;;15.67;11.20;;;8.90;99.90;;;;;;5074588;28;20317;-54
2021/12/14 12:35:47;;;;;;;16.40;12.10;;;8.80;99.90;;;;;;5074958;28;20247;-55
2021/12/14 12:38:24;;;;;;;13.90;10.60;;;8.90;99.90;;;;;;5064198;28;20696;-55
2021/12/14 12:40:56;;;;;;;14.97;11.43;;;8.90;99.90;;;;;;5074677;28;20246;-54
2021/12/14 12:43:31;;;;;;;14.47;10.90;;;8.90;99.90;;;;;;5064371;28;20740;-54
2021/12/14 12:46:05;;;;;;;14.80;10.57;;;8.90;99.90;;;;;;5067360;28;20320;-55
2021/12/14 12:49:08;;;;;;;17.73;11.70;;;8.90;99.90;;;;;;5081785;28;20225;-55
2021/12/14 12:51:58;;;;;;;16.30;11.20;;;8.90;99.90;;;;;;5088948;28;20231;-56
2021/12/14 12:54:41;;;;;;;13.20;10.33;;;8.90;99.90;;;;;;5070109;28;20605;-55
2021/12/14 12:57:30;;;;;;;13.33;10.00;;;8.90;99.90;;;;;;5073960;28;20240;-53
2021/12/14 13:00:11;;;;;;;15.57;10.33;;;8.90;99.90;;;;;;5069476;28;20256;-55
2021/12/14 13:02:43;;;;;;;14.20;10.03;;;8.90;99.90;;;;;;5073110;28;20231;-55
2021/12/14 13:05:21;;;;;;;15.13;11.00;;;8.90;99.90;;;;;;5073519;28;20288;-55
2021/12/14 13:07:55;;;;;;;13.57;9.47;;;8.90;99.90;;;;;;5072859;28;20255;-55
2021/12/14 13:10:28;;;;;;;13.03;9.53;;;8.90;99.90;;;;;;5073502;28;20247;-54
2021/12/14 13:13:02;;;;;;;15.33;10.23;;;8.90;99.90;;;;;;5085160;28;20680;-53
2021/12/14 13:15:53;;;;;;;13.50;9.60;;;8.90;99.90;;;;;;5081989;28;20204;-55
2021/12/14 13:18:44;;;;;;;15.17;10.47;;;8.90;99.90;;;;;;5093124;28;20210;-54
2021/12/14 13:21:31;;;;;;;13.93;10.73;;;8.90;99.90;;;;;;5093533;28;20219;-55
2021/12/14 13:24:06;;;;;;;16.07;11.43;;;8.90;99.90;;;;;;5089689;28;20635;-51
2021/12/14 13:26:48;;;;;;;15.53;11.57;;;8.90;99.90;;;;;;5093291;28;20303;-54